Ceska — CQPF — position and weather

sailwx.info

Track history (hours):
 
Tides and Currents Weather Stations Pressure Air Temp Water Temp Dewpoint Dewpoint Depression Visibility Wind Speed Wind Dir Waves Ship Positions

Ceska

Last reported at 2017-Nov-17 04:04 UTC. Time now 2017-Nov-23 04:02 UTC.
Position N 36°05' W 005°23'.

Length 75 m; draft 5.2 m.

Type: Ship (hazmat cat A). MMSI: 255801990.

Date/timePositionNaut miles runAvg speedWind from/ knotsBaromVisibWave heightAir tempDewpointWater temp
2017-Nov-17 04:04N 36°05' W 005°23'110.1
2017-Nov-17 04:00N 36°04' W 005°23'510.3
2017-Nov-17 03:30N 35°59' W 005°23'611.3
2017-Nov-17 03:00N 35°57' W 005°30'  
2017-Nov-14 08:45N 28°53' W 015°28'3 9.5
2017-Nov-14 08:29N 28°51' W 015°30'5 9.3
2017-Nov-14 07:56N 28°48' W 015°34'4 9.3
2017-Nov-14 07:29N 28°45' W 015°38'4 9.1
2017-Nov-14 07:00N 28°42' W 015°42'5 9.3
2017-Nov-14 06:30N 28°39' W 015°46'5 9.3
2017-Nov-14 06:00N 28°37' W 015°50'5 9.3
2017-Nov-14 05:30N 28°35' W 015°55'5 9.3
2017-Nov-14 05:00N 28°33' W 016°00'5 9.0
2017-Nov-14 04:24N 28°31' W 016°06'12 0.4
2017-Nov-13 02:00N 28°23' W 015°56'510.1
2017-Nov-13 01:30N 28°21' W 015°51'510.1
2017-Nov-13 01:00N 28°19' W 015°45'510.0
2017-Nov-13 00:30N 28°18' W 015°40'5 9.8
2017-Nov-13 00:00N 28°16' W 015°35'5 9.9
2017-Nov-12 23:30N 28°14' W 015°29'510.1
2017-Nov-12 23:00N 28°13' W 015°24'4 8.4
2017-Nov-12 22:30N 28°09' W 015°21'5 9.0
2017-Nov-12 22:00N 28°05' W 015°21'4 9.1
2017-Nov-12 21:30N 28°00' W 015°21'2 0.2
2017-Nov-12 07:33N 27°59' W 015°23'0 0.0
2017-Nov-12 07:30N 27°59' W 015°23'0 0.0
2017-Nov-12 06:45N 27°59' W 015°23'0 0.0
2017-Nov-12 06:30N 27°59' W 015°23'0 0.1
2017-Nov-12 05:58N 27°58' W 015°23'2 3.3
2017-Nov-12 05:30N 27°59' W 015°21'5 9.7
2017-Nov-12 05:00N 28°03' W 015°17'510.1
2017-Nov-12 04:30N 28°06' W 015°13'510.3
2017-Nov-12 04:00N 28°10' W 015°09'510.3
2017-Nov-12 03:30N 28°14' W 015°06'510.3
2017-Nov-12 03:00N 28°18' W 015°02'510.3
2017-Nov-12 02:30N 28°21' W 014°58'510.4
2017-Nov-12 02:00N 28°25' W 014°54'510.6
2017-Nov-12 01:30N 28°29' W 014°49'510.7
2017-Nov-12 01:00N 28°33' W 014°45'510.8
2017-Nov-12 00:30N 28°37' W 014°41'510.7
2017-Nov-12 00:00N 28°41' W 014°37'510.5
2017-Nov-11 23:30N 28°45' W 014°33'510.3
2017-Nov-11 23:00N 28°49' W 014°29'510.1
2017-Nov-11 22:30N 28°52' W 014°25'5 9.8
2017-Nov-11 22:00N 28°56' W 014°21'5 9.9
2017-Nov-11 21:30N 28°59' W 014°17'5 9.8
2017-Nov-11 20:59N 29°03' W 014°13'5 9.8
2017-Nov-11 20:30N 29°07' W 014°10'5 9.8
2017-Nov-11 20:00N 29°10' W 014°06'5 9.7
2017-Nov-11 19:30N 29°14' W 014°02'5 9.4
2017-Nov-11 19:00N 29°17' W 013°58'5 9.4
2017-Nov-11 18:30N 29°20' W 013°54'5 9.6
2017-Nov-11 18:00N 29°24' W 013°51'5 9.9
2017-Nov-11 17:30N 29°28' W 013°47'5 9.4
2017-Nov-11 17:00N 29°31' W 013°43'5 9.4
2017-Nov-11 16:30N 29°35' W 013°40'5 9.4
2017-Nov-11 16:00N 29°38' W 013°36'5 9.4
2017-Nov-11 15:30N 29°41' W 013°32'16 9.4
2017-Nov-11 13:51N 29°53' W 013°20'3 9.3
2017-Nov-11 13:30N 29°55' W 013°17'25 9.5
2017-Nov-11 10:50N 30°14' W 012°57'310.0
2017-Nov-11 10:30N 30°16' W 012°55'56 9.7
2017-Nov-11 04:44N 30°57' W 012°10'2 9.4
2017-Nov-11 04:29N 30°59' W 012°09'5 9.5
2017-Nov-11 03:58N 31°02' W 012°05'6210.4
2017-Nov-10 22:02N 31°48' W 011°15'010.5
2017-Nov-10 22:00N 31°48' W 011°15'3310.4
2017-Nov-10 18:51N 32°12' W 010°49'  
Track history (hours):
 
Tides and Currents Weather Stations Pressure Air Temp Water Temp Dewpoint Dewpoint Depression Visibility Wind Speed Wind Dir Waves Ship Positions

Ceska

Last reported at 2017-Nov-17 04:04 UTC. Time now 2017-Nov-23 04:02 UTC.
Position N 36°05' W 005°23'.

Length 75 m; draft 5.2 m.

Type: Ship (hazmat cat A). MMSI: 255801990.

Date/timePositionNaut miles runAvg speedWind from/ knotsBaromVisibWave heightAir tempDewpointWater temp
2017-Nov-17 04:04N 36°05' W 005°23'110.1
2017-Nov-17 04:00N 36°04' W 005°23'510.3
2017-Nov-17 03:30N 35°59' W 005°23'611.3
2017-Nov-17 03:00N 35°57' W 005°30'  
2017-Nov-14 08:45N 28°53' W 015°28'3 9.5
2017-Nov-14 08:29N 28°51' W 015°30'5 9.3
2017-Nov-14 07:56N 28°48' W 015°34'4 9.3
2017-Nov-14 07:29N 28°45' W 015°38'4 9.1
2017-Nov-14 07:00N 28°42' W 015°42'5 9.3
2017-Nov-14 06:30N 28°39' W 015°46'5 9.3
2017-Nov-14 06:00N 28°37' W 015°50'5 9.3
2017-Nov-14 05:30N 28°35' W 015°55'5 9.3
2017-Nov-14 05:00N 28°33' W 016°00'5 9.0
2017-Nov-14 04:24N 28°31' W 016°06'12 0.4
2017-Nov-13 02:00N 28°23' W 015°56'510.1
2017-Nov-13 01:30N 28°21' W 015°51'510.1
2017-Nov-13 01:00N 28°19' W 015°45'510.0
2017-Nov-13 00:30N 28°18' W 015°40'5 9.8
2017-Nov-13 00:00N 28°16' W 015°35'5 9.9
2017-Nov-12 23:30N 28°14' W 015°29'510.1
2017-Nov-12 23:00N 28°13' W 015°24'4 8.4
2017-Nov-12 22:30N 28°09' W 015°21'5 9.0
2017-Nov-12 22:00N 28°05' W 015°21'4 9.1
2017-Nov-12 21:30N 28°00' W 015°21'2 0.2
2017-Nov-12 07:33N 27°59' W 015°23'0 0.0
2017-Nov-12 07:30N 27°59' W 015°23'0 0.0
2017-Nov-12 06:45N 27°59' W 015°23'0 0.0
2017-Nov-12 06:30N 27°59' W 015°23'0 0.1
2017-Nov-12 05:58N 27°58' W 015°23'2 3.3
2017-Nov-12 05:30N 27°59' W 015°21'5 9.7
2017-Nov-12 05:00N 28°03' W 015°17'510.1
2017-Nov-12 04:30N 28°06' W 015°13'510.3
2017-Nov-12 04:00N 28°10' W 015°09'510.3
2017-Nov-12 03:30N 28°14' W 015°06'510.3
2017-Nov-12 03:00N 28°18' W 015°02'510.3
2017-Nov-12 02:30N 28°21' W 014°58'510.4
2017-Nov-12 02:00N 28°25' W 014°54'510.6
2017-Nov-12 01:30N 28°29' W 014°49'510.7
2017-Nov-12 01:00N 28°33' W 014°45'510.8
2017-Nov-12 00:30N 28°37' W 014°41'510.7
2017-Nov-12 00:00N 28°41' W 014°37'510.5
2017-Nov-11 23:30N 28°45' W 014°33'510.3
2017-Nov-11 23:00N 28°49' W 014°29'510.1
2017-Nov-11 22:30N 28°52' W 014°25'5 9.8
2017-Nov-11 22:00N 28°56' W 014°21'5 9.9
2017-Nov-11 21:30N 28°59' W 014°17'5 9.8
2017-Nov-11 20:59N 29°03' W 014°13'5 9.8
2017-Nov-11 20:30N 29°07' W 014°10'5 9.8
2017-Nov-11 20:00N 29°10' W 014°06'5 9.7
2017-Nov-11 19:30N 29°14' W 014°02'5 9.4
2017-Nov-11 19:00N 29°17' W 013°58'5 9.4
2017-Nov-11 18:30N 29°20' W 013°54'5 9.6
2017-Nov-11 18:00N 29°24' W 013°51'5 9.9
2017-Nov-11 17:30N 29°28' W 013°47'5 9.4
2017-Nov-11 17:00N 29°31' W 013°43'5 9.4
2017-Nov-11 16:30N 29°35' W 013°40'5 9.4
2017-Nov-11 16:00N 29°38' W 013°36'5 9.4
2017-Nov-11 15:30N 29°41' W 013°32'16 9.4
2017-Nov-11 13:51N 29°53' W 013°20'3 9.3
2017-Nov-11 13:30N 29°55' W 013°17'25 9.5
2017-Nov-11 10:50N 30°14' W 012°57'310.0
2017-Nov-11 10:30N 30°16' W 012°55'56 9.7
2017-Nov-11 04:44N 30°57' W 012°10'2 9.4
2017-Nov-11 04:29N 30°59' W 012°09'5 9.5
2017-Nov-11 03:58N 31°02' W 012°05'6210.4
2017-Nov-10 22:02N 31°48' W 011°15'010.5
2017-Nov-10 22:00N 31°48' W 011°15'3310.4
2017-Nov-10 18:51N 32°12' W 010°49'  

Dump ship's entire track history